Time;durP1;ratioP1;P1;durP2;ratioP2;P2;SDS_P1;SDS_P2;PMS_P1;PMS_P2;Temp;Humidity;BMP_temperature;BMP_pressure;BME280_temperature;BME280_humidity;BME280_pressure;Samples;Min_cycle;Max_cycle;Signal;HPM_P1;HPM_P2
2021/07/01 00:00:19;;;;;;;5.73;5.23;;;17.50;99.90;;;;;;5034659;28;20184;-79
2021/07/01 00:02:45;;;;;;;5.90;5.17;;;17.50;99.90;;;;;;5052355;28;20283;-80
2021/07/01 00:05:14;;;;;;;5.77;5.17;;;17.50;99.90;;;;;;5051116;28;20575;-80
2021/07/01 00:07:41;;;;;;;5.60;5.10;;;17.40;99.90;;;;;;5050834;28;20197;-80
2021/07/01 00:10:17;;;;;;;6.33;5.73;;;17.50;99.90;;;;;;5034027;28;20595;-80
2021/07/01 00:12:43;;;;;;;5.90;5.03;;;17.50;99.90;;;;;;5056943;28;20578;-80
2021/07/01 00:15:13;;;;;;;4.67;4.27;;;17.50;99.90;;;;;;5034228;28;20580;-80
2021/07/01 00:17:41;;;;;;;5.00;4.17;;;17.50;99.90;;;;;;5034213;28;20594;-80
2021/07/01 00:20:07;;;;;;;4.33;3.70;;;17.50;99.90;;;;;;5051847;28;20937;-80
2021/07/01 00:22:33;;;;;;;4.93;4.40;;;17.50;99.90;;;;;;5034081;28;20614;-80
2021/07/01 00:24:59;;;;;;;3.47;3.10;;;17.50;99.90;;;;;;5034251;28;20563;-80
2021/07/01 00:27:28;;;;;;;3.93;3.53;;;17.50;99.90;;;;;;5051265;28;20284;-80
2021/07/01 00:29:54;;;;;;;4.50;3.90;;;17.50;99.90;;;;;;5034229;28;21013;-80
2021/07/01 00:32:20;;;;;;;4.20;3.50;;;17.50;99.90;;;;;;5052024;28;20552;-80
2021/07/01 00:34:45;;;;;;;5.43;4.13;;;17.50;99.90;;;;;;5051812;28;20586;-80
2021/07/01 00:37:11;;;;;;;4.47;4.07;;;17.40;99.90;;;;;;5051703;28;20177;-80
2021/07/01 00:39:37;;;;;;;5.00;4.00;;;17.40;99.90;;;;;;5033899;28;20204;-81
2021/07/01 00:42:04;;;;;;;4.03;3.73;;;17.40;99.90;;;;;;5034123;28;20584;-80
2021/07/01 00:44:29;;;;;;;4.07;3.77;;;17.40;99.90;;;;;;5052039;28;20629;-81
2021/07/01 00:46:55;;;;;;;5.10;3.00;;;17.40;99.90;;;;;;5051770;28;20622;-80
2021/07/01 00:49:23;;;;;;;4.73;4.20;;;17.40;99.90;;;;;;5056130;28;20668;-80
2021/07/01 00:51:49;;;;;;;3.80;3.00;;;17.40;99.90;;;;;;5034328;28;20196;-80
2021/07/01 00:54:16;;;;;;;4.37;3.80;;;17.40;99.90;;;;;;5034403;28;20665;-81
2021/07/01 00:56:42;;;;;;;5.53;4.43;;;17.40;99.90;;;;;;5051078;28;20576;-80
2021/07/01 00:59:09;;;;;;;5.60;4.73;;;17.50;99.90;;;;;;5017587;28;20571;-81
2021/07/01 01:01:39;;;;;;;5.03;4.57;;;17.50;99.90;;;;;;5034706;28;20570;-81
2021/07/01 01:04:09;;;;;;;6.60;4.73;;;17.50;99.90;;;;;;5052144;28;21018;-81
2021/07/01 01:06:37;;;;;;;6.83;5.33;;;17.50;99.90;;;;;;5052330;28;20722;-80
2021/07/01 01:09:09;;;;;;;6.20;5.23;;;17.50;99.90;;;;;;5050916;28;20572;-80
2021/07/01 01:11:35;;;;;;;6.03;5.53;;;17.50;99.90;;;;;;5052363;28;20898;-80
2021/07/01 01:14:13;;;;;;;7.03;6.23;;;17.50;99.90;;;;;;5036431;28;20614;-81
2021/07/01 01:16:48;;;;;;;7.00;6.30;;;17.50;99.90;;;;;;5034057;28;21046;-81
2021/07/01 01:19:14;;;;;;;8.80;6.00;;;17.40;99.90;;;;;;5032915;28;20619;-80
2021/07/01 01:21:44;;;;;;;8.03;5.80;;;17.40;99.90;;;;;;5033664;28;20627;-81
2021/07/01 01:24:10;;;;;;;7.93;7.13;;;17.40;99.90;;;;;;5034325;28;20169;-81
2021/07/01 01:26:38;;;;;;;6.03;5.33;;;17.40;99.90;;;;;;5037615;28;21020;-80
2021/07/01 01:29:04;;;;;;;7.07;5.50;;;17.40;99.90;;;;;;5051168;28;20570;-80
2021/07/01 01:31:32;;;;;;;5.90;5.30;;;17.40;99.90;;;;;;5041658;28;20170;-81
2021/07/01 01:33:58;;;;;;;5.33;4.80;;;17.40;99.90;;;;;;5045281;28;20630;-81
2021/07/01 01:36:24;;;;;;;5.10;4.10;;;17.30;99.90;;;;;;5052744;28;20603;-81
2021/07/01 01:38:53;;;;;;;4.97;4.47;;;17.30;99.90;;;;;;5036754;28;21150;-80
2021/07/01 01:41:33;;;;;;;5.53;4.93;;;17.20;99.90;;;;;;5055121;28;20564;-81
2021/07/01 01:43:59;;;;;;;21.97;4.97;;;17.20;99.90;;;;;;5036963;28;20629;-80
2021/07/01 01:46:35;;;;;;;9.37;5.70;;;17.20;99.90;;;;;;5053130;28;20611;-80
2021/07/01 01:49:01;;;;;;;6.90;4.30;;;17.10;99.90;;;;;;5036652;28;20582;-80
2021/07/01 01:51:27;;;;;;;6.80;6.10;;;17.10;99.90;;;;;;5036765;28;20642;-80
2021/07/01 01:53:59;;;;;;;6.50;5.30;;;17.10;99.90;;;;;;5036904;28;20173;-80
2021/07/01 01:56:36;;;;;;;6.07;4.63;;;17.10;99.90;;;;;;5053187;28;20571;-81
2021/07/01 01:59:05;;;;;;;6.07;5.30;;;17.10;99.90;;;;;;5036646;28;20621;-80
2021/07/01 02:01:50;;;;;;;4.87;3.90;;;17.10;99.90;;;;;;5044630;28;20952;-80
2021/07/01 02:04:17;;;;;;;5.97;4.10;;;17.10;99.90;;;;;;5020025;28;20935;-81
2021/07/01 02:06:47;;;;;;;5.70;5.20;;;17.10;99.90;;;;;;5054229;28;20619;-80
2021/07/01 02:09:17;;;;;;;5.40;4.30;;;17.10;99.90;;;;;;5019474;28;20569;-81
2021/07/01 02:11:47;;;;;;;4.93;4.20;;;17.10;99.90;;;;;;5036370;28;20571;-81
2021/07/01 02:14:18;;;;;;;4.60;4.20;;;17.10;99.90;;;;;;5036537;28;21127;-81
2021/07/01 02:16:49;;;;;;;4.30;3.90;;;17.20;99.90;;;;;;5053009;28;20567;-81
2021/07/01 02:19:17;;;;;;;5.23;4.23;;;17.20;99.90;;;;;;5035860;28;20585;-81
2021/07/01 02:21:43;;;;;;;4.43;3.87;;;17.20;99.90;;;;;;5036331;28;20575;-81
2021/07/01 02:24:09;;;;;;;7.13;3.90;;;17.20;99.90;;;;;;5054032;28;20938;-81
2021/07/01 02:26:36;;;;;;;5.83;3.83;;;17.20;99.90;;;;;;5036191;28;20627;-81
2021/07/01 02:29:02;;;;;;;6.00;3.97;;;17.20;99.90;;;;;;5035927;28;20976;-80
2021/07/01 02:31:32;;;;;;;4.53;4.00;;;17.20;99.90;;;;;;5019496;28;20568;-80
2021/07/01 02:33:58;;;;;;;4.30;3.83;;;17.20;99.90;;;;;;5036231;28;20583;-80
2021/07/01 02:36:44;;;;;;;4.40;4.00;;;17.20;99.90;;;;;;5053834;28;20598;-80
2021/07/01 02:39:32;;;;;;;3.87;3.43;;;17.20;99.90;;;;;;5038391;28;20615;-80
2021/07/01 02:41:58;;;;;;;4.50;4.20;;;17.20;99.90;;;;;;5035963;28;20593;-81
2021/07/01 02:44:24;;;;;;;4.20;3.67;;;17.20;99.90;;;;;;5053670;28;20690;-80
2021/07/01 02:47:10;;;;;;;4.60;3.70;;;17.10;99.90;;;;;;5053424;28;20243;-80
2021/07/01 02:49:38;;;;;;;4.67;3.87;;;17.20;99.90;;;;;;5035732;28;20614;-80
2021/07/01 02:52:12;;;;;;;4.37;3.97;;;17.20;99.90;;;;;;5019355;28;20662;-80
2021/07/01 02:54:38;;;;;;;4.50;4.03;;;17.20;99.90;;;;;;5053464;28;20656;-80
2021/07/01 02:57:05;;;;;;;3.77;3.47;;;17.20;99.90;;;;;;5035375;28;20181;-80
2021/07/01 02:59:33;;;;;;;3.87;3.57;;;17.20;99.90;;;;;;5035186;28;20968;-80
2021/07/01 03:02:17;;;;;;;4.73;4.07;;;17.20;99.90;;;;;;5035382;28;20580;-80
2021/07/01 03:05:03;;;;;;;4.63;4.23;;;17.20;99.90;;;;;;5052027;28;20567;-80
2021/07/01 03:07:29;;;;;;;6.67;4.87;;;17.20;99.90;;;;;;5052886;28;20976;-80
2021/07/01 03:09:55;;;;;;;4.90;4.03;;;17.20;99.90;;;;;;5052828;28;20614;-80
2021/07/01 03:12:23;;;;;;;4.40;4.00;;;17.20;99.90;;;;;;5035661;28;20602;-80
2021/07/01 03:14:49;;;;;;;5.03;4.57;;;17.20;99.90;;;;;;5040650;28;20564;-81
2021/07/01 03:17:17;;;;;;;5.23;4.73;;;17.20;99.90;;;;;;5052931;28;20618;-80
2021/07/01 03:19:44;;;;;;;5.07;4.57;;;17.20;99.90;;;;;;5035026;28;20615;-80
2021/07/01 03:22:28;;;;;;;5.43;4.97;;;17.20;99.90;;;;;;5035135;28;20580;-80
2021/07/01 03:24:55;;;;;;;6.20;5.00;;;17.20;99.90;;;;;;5018882;28;20614;-80
2021/07/01 03:27:21;;;;;;;5.70;5.10;;;17.20;99.90;;;;;;5052723;28;20674;-81
2021/07/01 03:29:47;;;;;;;6.83;5.30;;;17.20;99.90;;;;;;5034932;28;20272;-81
2021/07/01 03:32:16;;;;;;;5.33;4.83;;;17.20;99.90;;;;;;5034999;28;20571;-81
2021/07/01 03:34:42;;;;;;;5.83;5.33;;;17.20;99.90;;;;;;5053245;28;20651;-80
2021/07/01 03:37:11;;;;;;;6.40;4.80;;;17.20;99.90;;;;;;5036297;28;20637;-80
2021/07/01 03:40:07;;;;;;;5.67;5.17;;;17.20;99.90;;;;;;5034369;28;20631;-80
2021/07/01 03:42:35;;;;;;;5.40;4.90;;;17.20;99.90;;;;;;5034767;28;20578;-81
2021/07/01 03:45:03;;;;;;;6.57;4.93;;;17.20;99.90;;;;;;5035111;28;20571;-87
2021/07/01 03:47:28;;;;;;;4.83;4.17;;;17.20;99.90;;;;;;5056786;28;20626;-86
2021/07/01 03:49:54;;;;;;;4.77;4.27;;;17.20;99.90;;;;;;5030049;28;20668;-86
2021/07/01 03:52:39;;;;;;;5.87;5.10;;;17.20;99.90;;;;;;5029576;28;20619;-86
2021/07/01 03:55:05;;;;;;;6.03;5.40;;;17.20;99.90;;;;;;5019548;28;20584;-87
2021/07/01 03:57:31;;;;;;;7.30;4.67;;;17.20;99.90;;;;;;5036824;28;20220;-86
2021/07/01 04:00:02;;;;;;;4.97;4.57;;;17.20;99.90;;;;;;5019363;28;20662;-86
2021/07/01 04:02:49;;;;;;;6.33;5.73;;;17.20;99.90;;;;;;5036364;28;20983;-86
2021/07/01 04:05:19;;;;;;;5.20;4.70;;;17.20;99.90;;;;;;5033132;28;20580;-86
2021/07/01 04:07:52;;;;;;;6.30;5.03;;;17.20;99.90;;;;;;5037178;28;20620;-86
2021/07/01 04:10:34;;;;;;;5.80;4.97;;;17.20;99.90;;;;;;5020729;28;20998;-87
2021/07/01 04:13:09;;;;;;;7.03;5.07;;;17.30;99.90;;;;;;5027216;28;20932;-87
2021/07/01 04:15:36;;;;;;;7.17;6.47;;;17.30;99.90;;;;;;5041359;28;20577;-86
2021/07/01 04:18:20;;;;;;;7.67;6.93;;;17.30;99.90;;;;;;5048841;28;20575;-86
2021/07/01 04:21:05;;;;;;;6.73;6.03;;;17.30;99.90;;;;;;5051452;28;20600;-86
2021/07/01 04:23:49;;;;;;;12.17;7.53;;;17.30;99.90;;;;;;5053897;28;20560;-86
2021/07/01 04:26:33;;;;;;;7.93;6.20;;;17.30;99.90;;;;;;5015860;28;20628;-86
2021/07/01 04:29:07;;;;;;;10.33;8.20;;;17.30;99.90;;;;;;5020943;28;20619;-86
2021/07/01 04:31:35;;;;;;;7.20;6.60;;;17.30;99.90;;;;;;5015456;28;21127;-87
2021/07/01 04:34:04;;;;;;;8.00;7.17;;;17.30;99.90;;;;;;5015100;28;20938;-87
2021/07/01 04:36:29;;;;;;;8.63;7.67;;;17.20;99.90;;;;;;5032320;28;20934;-86
2021/07/01 04:38:57;;;;;;;7.73;6.93;;;17.30;99.90;;;;;;5037252;28;20580;-86
2021/07/01 04:41:25;;;;;;;8.40;7.50;;;17.20;99.90;;;;;;5018302;28;20644;-84
2021/07/01 04:43:56;;;;;;;7.70;6.73;;;17.20;99.90;;;;;;5034104;28;21068;-84
2021/07/01 04:46:25;;;;;;;11.80;7.47;;;17.20;99.90;;;;;;5036700;28;20681;-86
2021/07/01 04:48:53;;;;;;;8.47;7.67;;;17.20;99.90;;;;;;5070956;28;20574;-85
2021/07/01 04:51:20;;;;;;;7.87;6.67;;;17.20;99.90;;;;;;5051132;28;20634;-86
2021/07/01 04:54:17;;;;;;;8.30;6.83;;;17.20;99.90;;;;;;5066523;28;20591;-86
2021/07/01 04:57:02;;;;;;;7.67;6.67;;;17.20;99.90;;;;;;5060412;28;20625;-86
2021/07/01 04:59:28;;;;;;;8.10;6.97;;;17.20;99.90;;;;;;5058477;28;20603;-85
2021/07/01 05:02:06;;;;;;;7.53;6.87;;;17.20;99.90;;;;;;5059167;28;20551;-86
2021/07/01 05:04:50;;;;;;;9.30;6.87;;;17.20;99.90;;;;;;5069550;28;20534;-86
2021/07/01 05:07:16;;;;;;;9.50;7.53;;;17.30;99.90;;;;;;5041680;28;20637;-87
2021/07/01 05:09:45;;;;;;;8.50;6.63;;;17.30;99.90;;;;;;5042518;28;20611;-86
2021/07/01 05:12:29;;;;;;;7.50;6.30;;;17.30;99.90;;;;;;5067870;28;20643;-86
2021/07/01 05:14:56;;;;;;;9.10;7.47;;;17.30;99.90;;;;;;5066964;28;20564;-87
2021/07/01 05:17:24;;;;;;;10.67;7.90;;;17.40;99.90;;;;;;5039187;28;20611;-87
2021/07/01 05:19:51;;;;;;;10.87;7.03;;;17.40;99.90;;;;;;5021882;28;20615;-86
2021/07/01 05:22:21;;;;;;;9.13;7.57;;;17.40;99.90;;;;;;5038569;28;20585;-87
2021/07/01 05:25:05;;;;;;;9.97;8.13;;;17.40;99.90;;;;;;5063347;28;20678;-87
2021/07/01 05:27:50;;;;;;;8.83;7.30;;;17.40;99.90;;;;;;5053461;28;20669;-87
2021/07/01 05:30:37;;;;;;;11.87;8.00;;;17.50;99.90;;;;;;5062098;28;20623;-86
2021/07/01 05:33:22;;;;;;;10.00;8.30;;;17.50;99.90;;;;;;5060936;28;20901;-86
2021/07/01 05:35:51;;;;;;;8.37;6.60;;;17.50;99.90;;;;;;5037509;28;20564;-84
2021/07/01 05:38:18;;;;;;;11.37;8.90;;;17.50;99.90;;;;;;5029954;28;21016;-84
2021/07/01 05:40:44;;;;;;;10.50;7.33;;;17.50;99.90;;;;;;5021528;28;20603;-84
2021/07/01 05:43:11;;;;;;;10.17;7.60;;;17.60;99.90;;;;;;5018093;28;21008;-85
2021/07/01 05:45:37;;;;;;;10.20;8.53;;;17.60;99.90;;;;;;5018359;28;21277;-85
2021/07/01 05:48:03;;;;;;;12.37;9.07;;;17.60;99.90;;;;;;5034883;28;20673;-85
2021/07/01 05:50:30;;;;;;;12.13;9.13;;;17.70;99.90;;;;;;5035304;28;20208;-84
2021/07/01 05:53:05;;;;;;;9.40;7.43;;;17.70;99.90;;;;;;5038585;28;20667;-85
2021/07/01 05:55:30;;;;;;;11.40;8.40;;;17.70;99.90;;;;;;5038635;28;20571;-84
2021/07/01 05:57:56;;;;;;;11.27;7.60;;;17.70;99.90;;;;;;5036517;28;20572;-84
2021/07/01 06:00:23;;;;;;;8.87;7.23;;;17.60;99.90;;;;;;5035303;28;20677;-84
2021/07/01 06:02:51;;;;;;;11.30;7.97;;;17.60;99.90;;;;;;5034630;28;20604;-83
2021/07/01 06:05:17;;;;;;;10.13;8.00;;;17.60;99.90;;;;;;5034350;28;20599;-82
2021/07/01 06:07:48;;;;;;;12.43;8.10;;;17.50;99.90;;;;;;5034223;28;20197;-82
2021/07/01 06:10:17;;;;;;;11.93;8.00;;;17.50;99.90;;;;;;5034678;28;20185;-82
2021/07/01 06:12:44;;;;;;;10.50;8.20;;;17.50;99.90;;;;;;5018274;28;20672;-82
2021/07/01 06:15:11;;;;;;;9.83;7.97;;;17.50;99.90;;;;;;5035974;28;20596;-82
2021/07/01 06:17:37;;;;;;;9.80;8.17;;;17.50;99.90;;;;;;5039572;28;20564;-82
2021/07/01 06:20:09;;;;;;;13.33;8.20;;;17.50;99.90;;;;;;5016954;28;20698;-84
2021/07/01 06:22:35;;;;;;;13.67;8.20;;;17.50;99.90;;;;;;5040969;28;20580;-84
2021/07/01 06:25:03;;;;;;;13.07;7.43;;;17.50;99.90;;;;;;5048180;28;20603;-87
2021/07/01 06:27:36;;;;;;;11.40;7.47;;;17.50;99.90;;;;;;5030719;28;20627;-87
2021/07/01 06:30:07;;;;;;;12.40;7.40;;;17.60;99.90;;;;;;5041698;28;20596;-86
2021/07/01 06:32:38;;;;;;;8.83;7.47;;;17.50;99.90;;;;;;5020554;28;20572;-84
2021/07/01 06:35:04;;;;;;;10.23;7.17;;;17.50;99.90;;;;;;5034551;28;20583;-84
2021/07/01 06:37:33;;;;;;;8.90;6.80;;;17.60;99.90;;;;;;5033936;28;20572;-84
2021/07/01 06:40:18;;;;;;;6.30;5.70;;;17.60;99.90;;;;;;5034670;28;20611;-85
2021/07/01 06:43:02;;;;;;;9.00;6.07;;;17.70;99.90;;;;;;5019485;28;20544;-86
2021/07/01 06:45:49;;;;;;;9.73;5.33;;;17.70;99.90;;;;;;5034191;28;20626;-85
2021/07/01 06:48:36;;;;;;;8.10;4.97;;;17.70;99.90;;;;;;5034862;28;21182;-86
2021/07/01 06:51:21;;;;;;;9.13;5.50;;;17.70;99.90;;;;;;5016243;28;20646;-86
2021/07/01 06:54:11;;;;;;;8.67;4.80;;;17.60;99.90;;;;;;5045656;28;20575;-84
2021/07/01 06:56:58;;;;;;;8.38;5.03;;;17.60;99.90;;;;;;5034470;28;21375;-83
2021/07/01 06:59:24;;;;;;;7.40;4.50;;;17.60;99.90;;;;;;5033234;28;20543;-80
2021/07/01 07:01:50;;;;;;;9.43;4.87;;;17.60;99.90;;;;;;5033456;28;20583;-81
2021/07/01 07:04:18;;;;;;;16.00;4.73;;;17.50;99.90;;;;;;5033212;28;20607;-83
2021/07/01 07:06:45;;;;;;;13.37;5.80;;;17.50;99.90;;;;;;4998484;28;20621;-81
2021/07/01 07:09:14;;;;;;;7.50;5.40;;;17.50;99.90;;;;;;5032488;28;20994;-82
2021/07/01 07:11:41;;;;;;;7.03;4.43;;;17.50;99.90;;;;;;5033198;28;20572;-81
2021/07/01 07:14:07;;;;;;;9.57;4.50;;;17.40;99.90;;;;;;5033097;28;21124;-81
2021/07/01 07:16:38;;;;;;;6.63;4.40;;;17.40;99.90;;;;;;5032906;28;20598;-81
2021/07/01 07:19:04;;;;;;;8.53;4.70;;;17.40;99.90;;;;;;5032752;28;20607;-81
2021/07/01 07:21:37;;;;;;;5.20;3.97;;;17.40;99.90;;;;;;5042022;28;20600;-81
2021/07/01 07:24:04;;;;;;;6.43;4.17;;;17.40;99.90;;;;;;5033524;28;20890;-82
2021/07/01 07:26:30;;;;;;;7.93;4.13;;;17.40;99.90;;;;;;5034207;28;20612;-82
2021/07/01 07:28:57;;;;;;;7.37;3.87;;;17.40;99.90;;;;;;5032507;28;20592;-82
2021/07/01 07:31:31;;;;;;;6.77;3.83;;;17.40;99.90;;;;;;5018544;28;20989;-83
2021/07/01 07:34:04;;;;;;;6.20;3.97;;;17.50;99.90;;;;;;5032868;28;20317;-83
2021/07/01 07:36:30;;;;;;;9.27;5.23;;;17.50;99.90;;;;;;5013917;28;21168;-82
2021/07/01 07:38:57;;;;;;;5.57;3.40;;;17.50;99.90;;;;;;5032574;28;20630;-81
2021/07/01 07:41:24;;;;;;;6.33;3.40;;;17.50;99.90;;;;;;5016652;28;20612;-82
2021/07/01 07:43:51;;;;;;;8.37;3.77;;;17.60;99.90;;;;;;5034614;28;20560;-81
2021/07/01 07:46:19;;;;;;;6.13;3.90;;;17.60;99.90;;;;;;5034191;28;20580;-82
2021/07/01 07:48:45;;;;;;;7.90;3.20;;;17.70;99.90;;;;;;5034454;28;20578;-81
2021/07/01 07:51:15;;;;;;;7.80;3.87;;;17.70;99.90;;;;;;5016292;28;21056;-83
2021/07/01 07:53:45;;;;;;;5.83;3.43;;;17.80;99.90;;;;;;5033341;28;20572;-82
2021/07/01 07:56:11;;;;;;;6.97;4.10;;;17.90;99.90;;;;;;5032912;28;20917;-81
2021/07/01 07:58:43;;;;;;;8.10;3.57;;;18.00;99.90;;;;;;5015473;28;20588;-82
2021/07/01 08:01:12;;;;;;;7.27;3.43;;;18.10;99.90;;;;;;5032925;28;20611;-82
2021/07/01 08:03:40;;;;;;;6.23;3.40;;;18.10;99.90;;;;;;5016078;28;20575;-83
2021/07/01 08:06:07;;;;;;;4.13;3.23;;;18.20;99.90;;;;;;5033138;28;20572;-84
2021/07/01 08:08:42;;;;;;;7.43;3.50;;;18.20;99.90;;;;;;5020404;28;20579;-82
2021/07/01 08:11:11;;;;;;;5.50;3.60;;;18.30;99.90;;;;;;5032202;28;21055;-82
2021/07/01 08:13:39;;;;;;;9.23;2.90;;;18.30;99.90;;;;;;5015059;28;20948;-83
2021/07/01 08:16:06;;;;;;;5.93;3.33;;;18.40;99.90;;;;;;5032704;28;20556;-83
2021/07/01 08:18:39;;;;;;;5.07;4.17;;;18.40;99.90;;;;;;5031920;28;20614;-83
2021/07/01 08:21:07;;;;;;;7.50;3.30;;;18.50;99.90;;;;;;5031967;28;20588;-83
2021/07/01 08:23:36;;;;;;;10.33;4.20;;;18.60;99.90;;;;;;5031634;28;20656;-83
2021/07/01 08:26:05;;;;;;;4.77;3.00;;;18.60;99.90;;;;;;5012065;28;21129;-82
2021/07/01 08:28:33;;;;;;;6.30;3.67;;;18.70;99.90;;;;;;5012032;28;20727;-82
2021/07/01 08:31:23;;;;;;;8.13;3.20;;;18.70;99.90;;;;;;4994938;28;20590;-82
2021/07/01 08:33:50;;;;;;;7.13;3.20;;;18.70;99.90;;;;;;5012096;28;20677;-82
2021/07/01 08:36:20;;;;;;;6.03;3.77;;;18.80;99.90;;;;;;5010786;28;20585;-82
2021/07/01 08:38:55;;;;;;;6.10;3.37;;;18.80;99.90;;;;;;5010390;28;20580;-81
2021/07/01 08:41:26;;;;;;;4.70;3.40;;;18.70;99.90;;;;;;5011704;28;21043;-83
2021/07/01 08:43:59;;;;;;;3.80;3.00;;;18.80;99.90;;;;;;5016710;28;20625;-82
2021/07/01 08:46:28;;;;;;;4.33;3.20;;;18.70;99.90;;;;;;5012051;28;20577;-81
2021/07/01 08:49:08;;;;;;;3.90;3.07;;;18.80;99.90;;;;;;5011116;28;20676;-82
2021/07/01 08:51:35;;;;;;;6.10;3.43;;;18.80;99.90;;;;;;5010714;28;20959;-82
2021/07/01 08:54:22;;;;;;;5.57;3.70;;;18.80;99.90;;;;;;5020557;28;20615;-83
2021/07/01 08:56:51;;;;;;;6.60;3.47;;;18.80;99.90;;;;;;5013962;28;20634;-83
2021/07/01 08:59:19;;;;;;;6.77;3.97;;;18.80;99.90;;;;;;5031133;28;20623;-84
2021/07/01 09:01:55;;;;;;;5.57;3.47;;;18.80;99.90;;;;;;5031236;28;20594;-83
2021/07/01 09:04:28;;;;;;;5.70;3.57;;;18.70;99.90;;;;;;5031278;28;20634;-82
2021/07/01 09:06:59;;;;;;;5.23;3.10;;;18.70;99.90;;;;;;5031239;28;20624;-83
2021/07/01 09:09:34;;;;;;;5.67;3.67;;;18.80;99.90;;;;;;5031315;28;20573;-83
2021/07/01 09:12:09;;;;;;;8.43;4.00;;;18.80;99.90;;;;;;5030054;28;20655;-83
2021/07/01 09:14:36;;;;;;;5.77;3.70;;;18.80;99.90;;;;;;5031313;28;20571;-83
2021/07/01 09:17:09;;;;;;;6.30;3.83;;;18.90;99.90;;;;;;5031273;28;20573;-83
2021/07/01 09:19:37;;;;;;;5.97;4.30;;;18.90;99.90;;;;;;5031226;28;20646;-83
2021/07/01 09:22:03;;;;;;;4.57;3.80;;;19.00;99.90;;;;;;5036071;28;20568;-82
2021/07/01 09:24:35;;;;;;;6.30;3.97;;;19.00;99.90;;;;;;5031345;28;20568;-83
2021/07/01 09:27:09;;;;;;;6.07;4.00;;;19.00;99.90;;;;;;5013248;28;20628;-83
2021/07/01 09:29:37;;;;;;;8.03;5.30;;;19.00;99.90;;;;;;5029582;28;20638;-84
2021/07/01 09:32:06;;;;;;;7.67;4.47;;;19.00;99.90;;;;;;5013674;28;20576;-83
2021/07/01 09:34:33;;;;;;;10.47;5.50;;;19.00;99.90;;;;;;5013473;28;20596;-84
2021/07/01 09:37:02;;;;;;;5.60;4.60;;;19.00;99.90;;;;;;5030028;28;20931;-83
2021/07/01 09:39:31;;;;;;;7.80;4.97;;;19.10;99.90;;;;;;5030771;28;21157;-84
2021/07/01 09:42:02;;;;;;;7.60;5.43;;;19.10;99.90;;;;;;5030945;28;21111;-83
2021/07/01 09:44:32;;;;;;;7.30;5.07;;;19.20;99.90;;;;;;5013567;28;20589;-84
2021/07/01 09:46:59;;;;;;;6.57;4.50;;;19.30;99.90;;;;;;5030956;28;20611;-86
2021/07/01 09:49:40;;;;;;;8.73;4.60;;;19.30;99.90;;;;;;5031739;28;20595;-84
2021/07/01 09:52:08;;;;;;;7.20;4.43;;;19.30;99.90;;;;;;5030158;28;20917;-85
2021/07/01 09:54:37;;;;;;;7.80;4.90;;;19.30;99.90;;;;;;5031204;28;20580;-85
2021/07/01 09:57:11;;;;;;;7.73;4.80;;;19.30;99.90;;;;;;5035586;28;20573;-84
2021/07/01 09:59:59;;;;;;;8.83;4.97;;;19.30;99.90;;;;;;5031656;28;20591;-84
2021/07/01 10:02:29;;;;;;;7.97;5.17;;;19.30;99.90;;;;;;5034723;28;20568;-84
2021/07/01 10:04:58;;;;;;;8.27;5.70;;;19.30;99.90;;;;;;5000793;28;20679;-83
2021/07/01 10:07:25;;;;;;;8.93;5.47;;;19.20;99.90;;;;;;5034279;28;20647;-82
2021/07/01 10:09:56;;;;;;;5.60;4.87;;;19.20;99.90;;;;;;5016305;28;20602;-82
2021/07/01 10:12:29;;;;;;;5.13;4.63;;;19.20;99.90;;;;;;5034211;28;20619;-84
2021/07/01 10:15:03;;;;;;;7.13;5.30;;;19.10;99.90;;;;;;5033044;28;20571;-83
2021/07/01 10:17:30;;;;;;;8.50;5.00;;;19.10;99.90;;;;;;5034115;28;20619;-83
2021/07/01 10:20:14;;;;;;;7.20;4.93;;;19.10;99.90;;;;;;5033819;28;20604;-83
2021/07/01 10:22:41;;;;;;;10.47;7.20;;;19.00;99.90;;;;;;5034325;28;20634;-85
2021/07/01 10:25:09;;;;;;;11.73;7.60;;;19.00;99.90;;;;;;5016629;28;20580;-84
2021/07/01 10:27:41;;;;;;;8.37;5.77;;;19.10;99.90;;;;;;5032817;28;20738;-85
2021/07/01 10:30:21;;;;;;;5.40;4.90;;;19.00;99.90;;;;;;5034253;28;20588;-85
2021/07/01 10:32:57;;;;;;;7.83;5.90;;;19.00;99.90;;;;;;5032987;28;21026;-84
2021/07/01 10:35:26;;;;;;;11.57;6.33;;;19.00;99.90;;;;;;5040204;28;20567;-84
2021/07/01 10:38:02;;;;;;;6.30;4.70;;;19.00;99.90;;;;;;5034340;28;20622;-85
2021/07/01 10:40:36;;;;;;;5.00;4.50;;;18.90;99.90;;;;;;5034516;28;20985;-84
2021/07/01 10:43:03;;;;;;;5.70;4.03;;;18.90;99.90;;;;;;5016470;28;20576;-83
2021/07/01 10:45:29;;;;;;;6.20;4.10;;;19.00;99.90;;;;;;5033933;28;20735;-83
2021/07/01 10:48:14;;;;;;;6.10;3.53;;;18.90;99.90;;;;;;5033477;28;20719;-83
2021/07/01 10:50:40;;;;;;;6.33;3.17;;;18.90;99.90;;;;;;5023492;28;20600;-83
2021/07/01 10:53:27;;;;;;;6.63;3.90;;;18.90;99.90;;;;;;5038459;28;20556;-83
2021/07/01 10:56:07;;;;;;;4.30;3.33;;;18.90;99.90;;;;;;5017138;28;20589;-83
2021/07/01 10:58:32;;;;;;;9.67;3.30;;;18.90;99.90;;;;;;5034268;28;21071;-83
2021/07/01 11:01:01;;;;;;;9.20;4.73;;;18.90;99.90;;;;;;5033586;28;20635;-85
2021/07/01 11:03:29;;;;;;;6.50;4.63;;;18.90;99.90;;;;;;5033653;28;20568;-83
2021/07/01 11:05:56;;;;;;;7.13;4.17;;;19.00;99.90;;;;;;5032092;28;20569;-84
2021/07/01 11:08:24;;;;;;;5.07;4.60;;;19.00;99.90;;;;;;5033320;28;20620;-85
2021/07/01 11:10:51;;;;;;;7.83;5.30;;;18.90;99.90;;;;;;5038403;28;20600;-84
2021/07/01 11:13:17;;;;;;;6.90;5.90;;;19.00;99.90;;;;;;5033442;28;20584;-83
2021/07/01 11:16:03;;;;;;;6.77;4.87;;;19.00;99.90;;;;;;5033093;28;20612;-84
2021/07/01 11:18:34;;;;;;;6.20;5.13;;;19.00;99.90;;;;;;5033089;28;20575;-83
2021/07/01 11:21:17;;;;;;;9.87;6.70;;;19.10;99.90;;;;;;5033304;28;21174;-84
2021/07/01 11:23:52;;;;;;;12.50;7.00;;;19.20;99.90;;;;;;5033193;28;20577;-84
2021/07/01 11:26:27;;;;;;;8.20;5.70;;;19.30;99.90;;;;;;5033355;28;20567;-84
2021/07/01 11:28:53;;;;;;;7.50;6.13;;;19.30;99.90;;;;;;5033380;28;20607;-83
2021/07/01 11:31:35;;;;;;;7.50;4.43;;;19.40;99.90;;;;;;5015679;28;20597;-83
2021/07/01 11:34:02;;;;;;;8.10;4.50;;;19.40;99.90;;;;;;5035336;28;20568;-82
2021/07/01 11:36:31;;;;;;;5.50;4.37;;;19.40;99.90;;;;;;5018810;28;20594;-83
2021/07/01 11:39:24;;;;;;;5.57;3.70;;;19.50;99.90;;;;;;5037427;28;20610;-84
2021/07/01 11:41:51;;;;;;;4.57;3.13;;;19.50;99.90;;;;;;5016154;28;20588;-84
2021/07/01 11:44:18;;;;;;;5.80;3.60;;;19.60;99.90;;;;;;5016253;28;20577;-84
2021/07/01 11:46:45;;;;;;;6.93;4.27;;;19.70;99.90;;;;;;5019030;28;20652;-83
2021/07/01 11:49:11;;;;;;;3.90;3.20;;;19.70;99.90;;;;;;5034152;28;20577;-84
2021/07/01 11:51:38;;;;;;;6.77;5.33;;;19.80;99.90;;;;;;5015334;28;20588;-85
2021/07/01 11:54:05;;;;;;;5.40;4.40;;;19.90;99.90;;;;;;5032044;28;21003;-85
2021/07/01 11:59:18;;;;;;;4.77;3.60;;;19.90;99.90;;;;;;5032419;28;20909;-82
2021/07/01 12:01:44;;;;;;;7.20;4.33;;;19.90;99.90;;;;;;5032693;28;20970;-83
2021/07/01 12:04:13;;;;;;;4.90;3.23;;;19.90;99.90;;;;;;5032571;28;20659;-82
2021/07/01 12:06:55;;;;;;;7.87;4.07;;;19.90;99.90;;;;;;5031939;28;21071;-82
2021/07/01 12:09:21;;;;;;;6.50;4.10;;;19.90;99.90;;;;;;5032419;28;20564;-83
2021/07/01 12:12:13;;;;;;;7.83;5.30;;;19.90;99.90;;;;;;5022615;28;20592;-83
2021/07/01 12:15:03;;;;;;;6.37;3.97;;;19.80;99.90;;;;;;5032773;28;20580;-83
2021/07/01 12:17:51;;;;;;;5.37;3.90;;;19.70;99.90;;;;;;5014637;28;20596;-83
2021/07/01 12:20:35;;;;;;;9.90;6.00;;;19.70;99.90;;;;;;5015065;28;20599;-82
2021/07/01 12:23:10;;;;;;;6.53;4.13;;;19.60;99.90;;;;;;5033625;28;20588;-83
2021/07/01 12:25:39;;;;;;;5.17;4.67;;;19.60;99.90;;;;;;5046038;28;20578;-83
2021/07/01 12:28:08;;;;;;;8.77;6.00;;;19.50;99.90;;;;;;5015196;28;20620;-84
2021/07/01 12:31:00;;;;;;;10.00;7.07;;;19.50;99.90;;;;;;5032173;28;20592;-84
2021/07/01 12:33:47;;;;;;;7.13;5.60;;;19.40;99.90;;;;;;5032102;28;20626;-84
2021/07/01 12:36:37;;;;;;;6.90;5.90;;;19.40;99.90;;;;;;5032008;28;20560;-83
2021/07/01 12:39:12;;;;;;;10.30;6.70;;;19.40;99.90;;;;;;5017517;28;21037;-84
2021/07/01 12:41:41;;;;;;;10.10;6.77;;;19.40;99.90;;;;;;5026829;28;20588;-84
2021/07/01 12:44:09;;;;;;;7.30;6.10;;;19.40;99.90;;;;;;5061387;28;20667;-84
2021/07/01 12:46:46;;;;;;;8.37;6.83;;;19.40;99.90;;;;;;5065173;28;20586;-84
2021/07/01 12:49:21;;;;;;;8.93;6.83;;;19.40;99.90;;;;;;5017891;28;20715;-84
2021/07/01 12:51:49;;;;;;;8.20;5.93;;;19.50;99.90;;;;;;5014998;28;20610;-85
2021/07/01 12:54:22;;;;;;;6.63;5.50;;;19.50;99.90;;;;;;5013789;28;20576;-83
2021/07/01 12:56:49;;;;;;;7.10;5.40;;;19.50;99.90;;;;;;5010001;28;20963;-83
2021/07/01 12:59:16;;;;;;;9.27;5.73;;;19.60;99.90;;;;;;5031132;28;20926;-82
2021/07/01 13:01:42;;;;;;;8.73;5.50;;;19.60;99.90;;;;;;5016397;28;20987;-83
2021/07/01 13:04:07;;;;;;;7.47;5.50;;;19.50;99.90;;;;;;5031635;28;20587;-83
2021/07/01 13:06:39;;;;;;;6.07;5.30;;;19.50;99.90;;;;;;4997270;28;20944;-82
2021/07/01 13:09:08;;;;;;;10.77;5.50;;;19.40;99.90;;;;;;4996002;28;20238;-84